Weather observations for the past three days for
Harrisonville Lawrence Smith Memorial Airport
Imperial (Metric)
Date Time (cdt) Wind (mph) Vis. (mi.) Weather Sky Cond. Temperature (ºF) Relative Humidity Wind Chill (°F) Heat Index (°F) Pressure Precipitation (in)
Air Dwpt 6 hour altimeter (in) sea level (mb) 1 hr 3 hr 6 hr
Max. Min.
05 18:15 E 5 10.00 Partly Cloudy SCT080 100.4 62.6 29% 102 29.92 0.0
05 17:55 Calm 10.00 Mostly Cloudy BKN090 BKN110 100.4 62.6 29% 102 29.92 0.0
05 17:35 SE 3 10.00 Mostly Cloudy BKN080 102.2 60.8 26% 103 29.92 0.0
05 17:15 Calm 10.00 Partly Cloudy SCT080 102.2 60.8 26% 103 29.92 0.0
05 16:55 SW 3 10.00 Fair CLR 100.4 60.8 27% 101 29.93 0.0
05 16:35 W 5 10.00 Fair CLR 102.2 62.6 27% 104 29.93 0.0
05 16:15 W 3 10.00 Fair CLR 102.2 60.8 26% 103 29.94 0.0
05 15:55 Calm 10.00 Fair CLR 100.4 60.8 27% 101 29.95 0.0
05 15:35 Calm 10.00 Fair CLR 100.4 60.8 27% 101 29.95 0.0
05 15:15 NW 5 10.00 Fair CLR 100.4 60.8 27% 101 29.96 0.0
05 14:35 W 3 10.00 Fair CLR 102.2 60.8 26% 103 29.97 0.0
05 12:55 SW 6 10.00 Fair CLR 98.6 62.6 31% 100 30.01 0.0
05 12:35 W 3 10.00 Fair CLR 98.6 62.6 31% 100 30.02 0.0
05 12:15 Calm 10.00 Fair CLR 98.6 64.4 33% 101 30.02 0.0
05 11:55 W 5 10.00 Fair CLR 96.8 64.4 34% 99 30.03 0.0
05 11:35 N 3 10.00 Fair CLR 96.8 68 39% 102 30.03 0.0
05 11:15 W 3 10.00 Fair CLR 96.8 68 39% 102 30.03 0.0
05 10:55 Calm 10.00 Fair CLR 95 66.2 39% 98 30.03 0.0
05 10:35 Calm 10.00 Fair CLR 91.4 66.2 44% 94 30.02 0.0
05 10:15 Calm 10.00 Fair CLR 89.6 68 49% 93 30.02 0.0
05 09:55 Calm 10.00 Fair CLR 87.8 68 52% 91 30.02 0.0
05 09:35 Calm 10.00 Fair CLR 86 68 55% 89 30.02 0.0
05 09:15 Calm 10.00 Fair CLR 82.4 69.8 66% 86 30.02 0.0
05 08:55 Calm 10.00 Fair CLR 80.6 69.8 70% 84 30.01 0.0
05 08:35 Calm 10.00 Fair CLR 80.6 69.8 70% 84 30 0.0
05 08:15 Calm 10.00 Fair CLR 78.8 69.8 74% 81 30 0.0
05 07:55 Calm 10.00 Fair CLR 75.2 69.8 83% 75 30 0.0
05 06:35 Calm 10.00 Fair CLR 69.8 68 94% 29.98 0.0
05 06:15 Calm 10.00 Fair CLR 69.8 68 94% 29.97 0.0
05 05:55 Calm 10.00 Fair CLR 69.8 68 94% 29.97 0.0
05 05:35 Calm 10.00 Fair CLR 71.6 68 88% 29.97 0.0
05 05:15 Calm 10.00 Fair CLR 71.6 68 88% 29.97 0.0
05 04:55 SW 5 10.00 Fair CLR 71.6 68 88% 29.98 0.0
05 04:35 Calm 10.00 Fair CLR 71.6 68 88% 29.97 0.0
05 04:15 Calm 10.00 Fair CLR 71.6 68 88% 29.97 0.0
05 03:55 Calm 10.00 Fair CLR 71.6 68 88% 29.97 0.0
05 03:35 Calm 10.00 Fair CLR 73.4 68 83% 29.96 0.0
05 03:15 Calm 10.00 Fair CLR 73.4 68 83% 29.97 0.0
05 02:55 Calm 10.00 Fair CLR 73.4 68 83% 29.96 0.0
05 02:35 Calm 10.00 Fair CLR 73.4 68 83% 29.96 0.0
05 02:15 Calm 10.00 Fair CLR 73.4 68 83% 29.96 0.0
05 01:55 Calm 10.00 Fair CLR 73.4 68 83% 29.97 0.0
05 01:35 Calm 10.00 Fair CLR 73.4 68 83% 29.97 0.0
05 01:15 Calm 10.00 Fair CLR 73.4 68 83% 29.97 0.0
05 00:55 Calm 10.00 Fair CLR 75.2 68 78% 76 29.97 0.0
05 00:35 Calm 10.00 Fair CLR 75.2 68 78% 76 29.97 0.0
05 00:15 Calm 10.00 Fair CLR 77 69.8 79% 79 29.97 0.0
04 23:55 Calm 10.00 Fair CLR 75.2 69.8 83% 75 29.97 0.0
04 23:35 Calm 10.00 Fair CLR 77 69.8 79% 79 29.97 0.0
04 23:15 Calm 10.00 Fair CLR 77 69.8 79% 79 29.97 0.0
04 22:55 Calm 10.00 Fair CLR 77 69.8 79% 79 29.97 0.0
04 22:35 Calm 10.00 Fair CLR 77 69.8 79% 79 29.97 0.0
04 22:15 Calm 10.00 Fair CLR 78.8 69.8 74% 81 29.96 0.0
04 21:55 Calm 10.00 Fair CLR 78.8 69.8 74% 81 29.96 0.0
04 21:35 Calm 10.00 Fair CLR 78.8 69.8 74% 81 29.95 0.0
04 21:15 Calm 10.00 Fair CLR 80.6 69.8 70% 84 29.95 0.0
04 20:55 Calm 10.00 Fair CLR 80.6 69.8 70% 84 29.94 0.0
04 20:35 Calm 10.00 Fair CLR 82.4 69.8 66% 86 29.93 0.0
04 20:15 Calm 10.00 Fair CLR 86 69.8 59% 91 29.93 0.0
04 19:55 Calm 10.00 Fair CLR 86 69.8 59% 91 29.92 0.0
04 19:35 Calm 10.00 Fair CLR 91.4 68 46% 96 29.93 0.0
04 19:15 Calm 10.00 Fair CLR 95 64.4 36% 97 29.93 0.0
04 18:55 S 5 10.00 Fair CLR 96.8 64.4 34% 99 29.93 0.0
04 18:35 S 5 10.00 Fair CLR 96.8 62.6 32% 98 29.93 0.0
04 18:15 S 5 10.00 Fair CLR 96.8 62.6 32% 98 29.94 0.0
04 17:55 S 7 10.00 Fair CLR 98.6 62.6 31% 100 29.94 0.0
04 17:35 SW 7 10.00 Fair CLR 98.6 62.6 31% 100 29.94 0.0
04 17:15 Calm 10.00 Fair CLR 98.6 62.6 31% 100 29.94 0.0
04 16:55 S 7 G 17 10.00 Fair CLR 98.6 62.6 31% 100 29.94 0.0
04 16:35 SE 5 10.00 Fair CLR 98.6 62.6 31% 100 29.94 0.0
04 16:15 S 5 10.00 Fair CLR 98.6 62.6 31% 100 29.95 0.0
04 15:55 S 8 10.00 Fair CLR 98.6 62.6 31% 100 29.95 0.0
04 15:35 SE 10 10.00 Fair CLR 98.6 64.4 33% 101 29.96 0.0
04 15:15 S 3 G 16 10.00 Fair CLR 98.6 64.4 33% 101 29.96 0.0
04 14:55 SW 10 10.00 Fair CLR 98.6 66.2 35% 103 29.97 0.0
04 14:35 S 8 10.00 Fair CLR 98.6 66.2 35% 103 29.97 0.0
04 14:15 S 5 10.00 Fair CLR 96.8 66.2 37% 100 29.97 0.0
04 13:55 SW 7 10.00 Fair CLR 98.6 66.2 35% 103 29.98 0.0
04 13:35 S 10 10.00 Fair CLR 96.8 68 39% 102 29.99 0.0
04 13:15 S 9 10.00 Fair CLR 96.8 66.2 37% 100 29.99 0.0
04 12:55 S 6 10.00 Fair CLR 96.8 68 39% 102 30 0.0
04 12:35 S 9 10.00 Fair CLR 96.8 68 39% 102 30 0.0
04 12:15 S 7 10.00 Fair CLR 95 68 41% 100 30.01 0.0
04 11:35 SW 8 10.00 Fair CLR 93.2 68 44% 98 30.02 0.0
04 10:35 SW 10 10.00 Fair CLR 89.6 69.8 52% 95 30.02 0.0
04 10:15 SW 8 10.00 Fair CLR 87.8 68 52% 91 30.02 0.0
04 09:55 SW 10 10.00 Fair CLR 87.8 69.8 55% 93 30.02 0.0
04 09:35 SW 9 10.00 Fair CLR 86 68 55% 89 30.02 0.0
04 09:15 SW 7 10.00 Fair CLR 84.2 68 58% 87 30.02 0.0
04 08:55 S 6 10.00 Fair CLR 80.6 68 66% 83 30.02 0.0
04 08:35 S 6 10.00 Fair CLR 78.8 68 70% 81 30.02 0.0
04 08:15 S 5 10.00 Fair CLR 77 68 74% 79 30.01 0.0
04 07:55 S 5 10.00 Fair CLR 77 68 74% 79 30.01 0.0
04 07:35 S 3 10.00 Fair CLR 73.4 68 83% 30 0.0
04 07:15 Calm 10.00 Fair CLR 73.4 66.2 78% 30 0.0
04 06:55 Calm 10.00 Fair CLR 73.4 66.2 78% 29.99 0.0
04 06:35 SE 3 10.00 Fair CLR 71.6 66.2 83% 29.99 0.0
04 06:15 S 3 10.00 Fair CLR 71.6 66.2 83% 29.98 0.0
04 05:55 Calm 10.00 Fair CLR 71.6 68 88% 29.98 0.0
04 05:35 Calm 10.00 Fair CLR 71.6 66.2 83% 29.98 0.0
04 05:15 Calm 10.00 Fair CLR 71.6 66.2 83% 29.97 0.0
04 04:55 Calm 10.00 Fair CLR 73.4 66.2 78% 29.97 0.0
04 04:35 Calm 10.00 Fair CLR 73.4 66.2 78% 29.97 0.0
04 04:15 Calm 10.00 Fair CLR 73.4 66.2 78% 29.96 0.0
04 03:55 Calm 10.00 Fair CLR 73.4 66.2 78% 29.96 0.0
04 03:35 Calm 10.00 Fair CLR 73.4 68 83% 29.95 0.0
04 03:15 Calm 10.00 Fair CLR 75.2 66.2 74% 77 29.95 0.0
04 02:55 Calm 10.00 Fair CLR 75.2 66.2 74% 77 29.95 0.0
04 02:35 S 5 10.00 Fair CLR 73.4 68 83% 29.95 0.0
04 02:15 SE 3 10.00 Fair CLR 75.2 68 78% 76 29.95 0.0
04 01:55 Calm 10.00 Fair CLR 77 68 74% 79 29.95 0.0
04 01:35 Calm 10.00 Fair CLR 77 68 74% 79 29.95 0.0
04 01:15 SE 3 10.00 Fair CLR 75.2 68 78% 76 29.95 0.0
04 00:55 Calm 10.00 Fair CLR 77 68 74% 79 29.94 0.0
04 00:35 Calm 10.00 Fair CLR 77 68 74% 79 29.94 0.0
04 00:15 Calm 10.00 Fair CLR 77 68 74% 79 29.94 0.0
03 23:55 Calm 10.00 Fair CLR 77 68 74% 79 29.94 0.0
03 23:35 Calm 10.00 Fair CLR 77 68 74% 79 29.94 0.0
03 23:15 Calm 10.00 Fair CLR 77 68 74% 79 29.93 0.0
03 22:55 Calm 10.00 Fair CLR 77 68 74% 79 29.93 0.0
03 22:35 Calm 10.00 Fair CLR 78.8 68 70% 81 29.93 0.0
03 22:15 Calm 10.00 Fair CLR 78.8 68 70% 81 29.93 0.0
03 21:55 Calm 10.00 Fair CLR 78.8 68 70% 81 29.92 0.0
03 21:35 Calm 10.00 Fair CLR 80.6 68 66% 83 29.92 0.0
03 21:15 Calm 10.00 Fair CLR 80.6 68 66% 83 29.92 0.0
03 20:55 Calm 4.00 Fair with Haze CLR 84.2 68 58% 87 29.9 0.0
03 20:35 S 3 5.00 Fair with Haze CLR 86 68 55% 89 29.9 0.0
03 20:15 S 3 7.00 Fair CLR 87.8 64.4 46% 89 29.89 0.0
03 19:55 S 3 7.00 Fair CLR 89.6 64.4 43% 91 29.89 0.0
03 19:35 S 3 10.00 Fair CLR 91.4 66.2 44% 94 29.89 0.0
03 19:15 S 5 10.00 Fair CLR 95 62.6 34% 96 29.89 0.0
03 18:55 S 5 10.00 Fair CLR 96.8 62.6 32% 98 29.9 0.0
03 18:35 S 8 10.00 Fair CLR 96.8 60.8 30% 97 29.9 0.0
03 18:15 S 7 10.00 Fair CLR 96.8 60.8 30% 97 29.9 0.0
03 17:55 S 7 10.00 Fair CLR 98.6 60.8 29% 99 29.9 0.0
03 17:35 S 8 10.00 Fair CLR 98.6 60.8 29% 99 29.9 0.0
03 17:15 S 8 10.00 Fair CLR 98.6 60.8 29% 99 29.9 0.0
03 16:55 S 10 10.00 Fair CLR 98.6 60.8 29% 99 29.9 0.0
03 16:35 S 8 10.00 Fair CLR 98.6 60.8 29% 99 29.9 0.0
03 16:15 S 9 G 18 10.00 Fair CLR 98.6 62.6 31% 100 29.9 0.0
03 15:55 S 7 G 17 10.00 Fair CLR 98.6 62.6 31% 100 29.91 0.0
03 15:35 S 8 10.00 Fair CLR 98.6 62.6 31% 100 29.92 0.0
03 15:15 SW 12 G 16 10.00 Fair CLR 98.6 62.6 31% 100 29.92 0.0
03 14:55 S 9 10.00 Fair CLR 98.6 62.6 31% 100 29.93 0.0
03 14:35 SW 12 G 16 10.00 Fair CLR 98.6 62.6 31% 100 29.93 0.0
03 14:15 SW 12 G 17 10.00 Fair CLR 98.6 62.6 31% 100 29.94 0.0
03 13:55 SW 9 10.00 Fair CLR 98.6 62.6 31% 100 29.95 0.0
03 13:35 S 12 G 17 10.00 Fair CLR 96.8 62.6 32% 98 29.95 0.0
03 13:15 SW 10 10.00 Fair CLR 96.8 64.4 34% 99 29.97 0.0
03 12:55 SW 12 G 16 10.00 Fair CLR 96.8 64.4 34% 99 29.97 0.0
03 12:35 SW 10 G 20 10.00 Fair CLR 95 64.4 36% 97 29.98 0.0
03 12:15 SW 7 G 16 10.00 Fair CLR 95 64.4 36% 97 29.98 0.0
03 11:55 SW 10 10.00 Fair CLR 95 64.4 36% 97 29.99 0.0
03 11:35 SW 13 G 20 10.00 Fair CLR 93.2 64.4 39% 95 29.99 0.0
03 11:15 SW 14 G 20 10.00 Fair CLR 91.4 64.4 41% 93 30 0.0
03 10:55 SW 13 G 17 10.00 Fair CLR 91.4 66.2 44% 94 30 0.0
03 10:35 SW 9 10.00 Fair CLR 89.6 68 49% 93 30 0.0
03 10:15 SW 9 10.00 Fair CLR 89.6 68 49% 93 30 0.0
03 09:55 SW 12 G 16 10.00 Fair CLR 87.8 68 52% 91 30 0.0
03 09:35 SW 10 10.00 Fair CLR 86 68 55% 89 30 0.0
03 09:15 SW 8 10.00 Fair CLR 86 68 55% 89 30.01 0.0
03 08:55 S 7 10.00 Fair CLR 82.4 68 62% 85 30.01 0.0
03 08:35 S 3 10.00 Fair CLR 80.6 68 66% 83 30 0.0
03 08:15 S 5 10.00 Fair CLR 78.8 68 70% 81 30 0.0
03 07:55 S 3 10.00 Fair CLR 77 68 74% 79 30 0.0
03 07:35 S 3 10.00 Fair CLR 77 66.2 69% 79 30 0.0
03 07:15 S 5 10.00 Fair CLR 75.2 66.2 74% 77 30 0.0
03 06:55 S 5 10.00 Fair CLR 73.4 66.2 78% 29.99 0.0
03 06:35 S 5 10.00 Fair CLR 73.4 66.2 78% 29.99 0.0
03 06:15 S 5 10.00 Fair CLR 73.4 66.2 78% 29.98 0.0
03 05:55 S 5 10.00 Fair CLR 73.4 66.2 78% 29.98 0.0
03 05:35 S 3 10.00 Fair CLR 73.4 66.2 78% 29.97 0.0
03 05:15 Calm 10.00 Fair CLR 73.4 66.2 78% 29.97 0.0
03 04:55 Calm 10.00 Fair CLR 75.2 66.2 74% 77 29.97 0.0
03 04:35 Calm 10.00 Fair CLR 75.2 64.4 69% 77 29.97 0.0
03 04:15 S 3 10.00 Fair CLR 75.2 64.4 69% 77 29.97 0.0
03 03:55 SE 3 10.00 Fair CLR 73.4 66.2 78% 29.97 0.0
03 03:35 Calm 10.00 Fair CLR 73.4 66.2 78% 29.97 0.0
03 03:15 Calm 10.00 Fair CLR 75.2 64.4 69% 77 29.96 0.0
03 02:55 Calm 10.00 Fair CLR 77 64.4 65% 79 29.96 0.0
03 02:35 Calm 10.00 Fair CLR 78.8 64.4 61% 81 29.96 0.0
03 02:15 Calm 10.00 Fair CLR 77 64.4 65% 79 29.97 0.0
03 01:55 S 3 10.00 Fair CLR 77 64.4 65% 79 29.97 0.0
03 01:35 SE 5 10.00 Fair CLR 78.8 64.4 61% 81 29.96 0.0
03 01:15 SE 3 10.00 Fair CLR 78.8 66.2 65% 81 29.96 0.0
03 00:55 SE 3 10.00 Fair CLR 77 68 74% 79 29.96 0.0
03 00:35 Calm 10.00 Fair CLR 75.2 68 78% 76 29.96 0.0
03 00:15 Calm 10.00 Fair CLR 75.2 68 78% 76 29.96 0.0
02 23:55 Calm 10.00 Fair CLR 77 68 74% 79 29.96 0.0
02 23:35 Calm 10.00 Fair CLR 77 68 74% 79 29.96 0.0
02 23:15 Calm 10.00 Fair CLR 77 68 74% 79 29.96 0.0
02 22:55 Calm 10.00 Fair CLR 78.8 68 70% 81 29.96 0.0
02 22:35 Calm 10.00 Fair CLR 78.8 68 70% 81 29.96 0.0
02 22:15 Calm 10.00 Fair CLR 80.6 68 66% 83 29.96 0.0
02 21:55 Calm 10.00 Fair CLR 78.8 68 70% 81 29.96 0.0
02 21:35 SE 3 10.00 Fair CLR 80.6 68 66% 83 29.96 0.0
02 21:15 Calm 10.00 Fair CLR 80.6 68 66% 83 29.95 0.0
02 20:55 Calm 10.00 Fair CLR 82.4 68 62% 85 29.95 0.0
02 20:35 SE 3 10.00 Fair CLR 86 68 55% 89 29.94 0.0
02 20:15 SE 3 10.00 Fair CLR 87.8 66.2 49% 90 29.93 0.0
02 19:55 S 3 10.00 Fair CLR 89.6 64.4 43% 91 29.93 0.0
02 19:35 Calm 10.00 Fair CLR 91.4 64.4 41% 93 29.93 0.0
02 19:15 S 3 10.00 Fair CLR 95 62.6 34% 96 29.93 0.0
02 18:55 S 3 10.00 Fair CLR 96.8 62.6 32% 98 29.93 0.0
02 18:35 S 6 10.00 Fair CLR 96.8 60.8 30% 97 29.93 0.0
Date Time (cdt) Wind (mph) Vis. (mi.) Weather Sky Cond. Air Dwpt Max. Min. Relative Humidity Wind Chill (°F) Heat Index (°F) altimeter (in) sea level (mb) 1 hr 3 hr 6 hr
6 hour
Temperature (ºF) Pressure Precipitation (in)